sensor_id;sensor_type;location;lat;lon;timestamp;temperature;humidity
74364;DHT22;62797;49.740;10.154;2023-01-20T00:01:15;0.50;68.90
74364;DHT22;62797;49.740;10.154;2023-01-20T00:03:41;0.40;69.10
74364;DHT22;62797;49.740;10.154;2023-01-20T00:06:08;0.40;69.00
74364;DHT22;62797;49.740;10.154;2023-01-20T00:08:34;0.40;70.20
74364;DHT22;62797;49.740;10.154;2023-01-20T00:11:10;0.40;69.60
74364;DHT22;62797;49.740;10.154;2023-01-20T00:13:37;0.40;69.80
74364;DHT22;62797;49.740;10.154;2023-01-20T00:16:04;0.40;69.60
74364;DHT22;62797;49.740;10.154;2023-01-20T00:18:30;0.30;69.60
74364;DHT22;62797;49.740;10.154;2023-01-20T00:21:00;0.30;71.00
74364;DHT22;62797;49.740;10.154;2023-01-20T00:23:25;0.30;70.70
74364;DHT22;62797;49.740;10.154;2023-01-20T00:25:51;0.40;70.20
74364;DHT22;62797;49.740;10.154;2023-01-20T00:28:16;0.30;70.40
74364;DHT22;62797;49.740;10.154;2023-01-20T00:30:42;0.40;70.60
74364;DHT22;62797;49.740;10.154;2023-01-20T00:33:07;0.40;70.10
74364;DHT22;62797;49.740;10.154;2023-01-20T00:35:35;0.40;70.10
74364;DHT22;62797;49.740;10.154;2023-01-20T00:38:00;0.40;69.80
74364;DHT22;62797;49.740;10.154;2023-01-20T00:40:26;0.40;69.60
74364;DHT22;62797;49.740;10.154;2023-01-20T00:42:51;0.40;69.70
74364;DHT22;62797;49.740;10.154;2023-01-20T00:45:17;0.40;69.70
74364;DHT22;62797;49.740;10.154;2023-01-20T00:47:42;0.30;70.60
74364;DHT22;62797;49.740;10.154;2023-01-20T00:50:08;0.30;70.90
74364;DHT22;62797;49.740;10.154;2023-01-20T00:52:34;0.30;71.10
74364;DHT22;62797;49.740;10.154;2023-01-20T00:54:59;0.40;70.70
74364;DHT22;62797;49.740;10.154;2023-01-20T00:57:25;0.40;70.50
74364;DHT22;62797;49.740;10.154;2023-01-20T00:59:50;0.40;70.20
74364;DHT22;62797;49.740;10.154;2023-01-20T01:02:16;0.30;70.60
74364;DHT22;62797;49.740;10.154;2023-01-20T01:04:41;0.40;70.90
74364;DHT22;62797;49.740;10.154;2023-01-20T01:07:08;0.30;70.90
74364;DHT22;62797;49.740;10.154;2023-01-20T01:09:33;0.30;71.80
74364;DHT22;62797;49.740;10.154;2023-01-20T01:11:59;0.30;71.70
74364;DHT22;62797;49.740;10.154;2023-01-20T01:14:25;0.40;71.10
74364;DHT22;62797;49.740;10.154;2023-01-20T01:16:50;0.40;70.60
74364;DHT22;62797;49.740;10.154;2023-01-20T01:19:19;0.40;70.30
74364;DHT22;62797;49.740;10.154;2023-01-20T01:21:44;0.40;71.10
74364;DHT22;62797;49.740;10.154;2023-01-20T01:24:10;0.40;70.90
74364;DHT22;62797;49.740;10.154;2023-01-20T01:26:35;0.30;70.70
74364;DHT22;62797;49.740;10.154;2023-01-20T01:29:01;0.30;71.30
74364;DHT22;62797;49.740;10.154;2023-01-20T01:31:26;0.40;71.30
74364;DHT22;62797;49.740;10.154;2023-01-20T01:33:52;0.40;70.80
74364;DHT22;62797;49.740;10.154;2023-01-20T01:36:17;0.40;70.90
74364;DHT22;62797;49.740;10.154;2023-01-20T01:38:43;0.40;71.00
74364;DHT22;62797;49.740;10.154;2023-01-20T01:41:11;0.40;70.40
74364;DHT22;62797;49.740;10.154;2023-01-20T01:43:38;0.40;70.50
74364;DHT22;62797;49.740;10.154;2023-01-20T01:46:04;0.30;70.80
74364;DHT22;62797;49.740;10.154;2023-01-20T01:48:37;0.30;71.50
74364;DHT22;62797;49.740;10.154;2023-01-20T01:51:08;0.30;71.70
74364;DHT22;62797;49.740;10.154;2023-01-20T01:53:49;0.20;71.40
74364;DHT22;62797;49.740;10.154;2023-01-20T01:56:19;0.20;72.30
74364;DHT22;62797;49.740;10.154;2023-01-20T01:58:47;0.30;71.90
74364;DHT22;62797;49.740;10.154;2023-01-20T02:01:14;0.20;71.70
74364;DHT22;62797;49.740;10.154;2023-01-20T02:03:48;0.00;73.50
74364;DHT22;62797;49.740;10.154;2023-01-20T02:06:17;0.00;73.40
74364;DHT22;62797;49.740;10.154;2023-01-20T02:08:44;0.00;73.90
74364;DHT22;62797;49.740;10.154;2023-01-20T02:11:10;0.00;74.60
74364;DHT22;62797;49.740;10.154;2023-01-20T02:13:36;0.00;74.50
74364;DHT22;62797;49.740;10.154;2023-01-20T02:16:23;0.10;74.10
74364;DHT22;62797;49.740;10.154;2023-01-20T02:27:54;0.00;74.10
74364;DHT22;62797;49.740;10.154;2023-01-20T02:30:38;0.00;75.30
74364;DHT22;62797;49.740;10.154;2023-01-20T02:33:13;0.00;75.10
74364;DHT22;62797;49.740;10.154;2023-01-20T02:35:54;-0.10;74.40
74364;DHT22;62797;49.740;10.154;2023-01-20T02:39:08;0.00;74.60
74364;DHT22;62797;49.740;10.154;2023-01-20T02:44:19;-0.10;74.50
74364;DHT22;62797;49.740;10.154;2023-01-20T02:46:51;0.00;75.10
74364;DHT22;62797;49.740;10.154;2023-01-20T02:49:23;-0.10;74.20
74364;DHT22;62797;49.740;10.154;2023-01-20T02:51:57;-0.10;74.60
74364;DHT22;62797;49.740;10.154;2023-01-20T02:54:26;-0.10;74.80
74364;DHT22;62797;49.740;10.154;2023-01-20T02:56:55;-0.10;74.50
74364;DHT22;62797;49.740;10.154;2023-01-20T02:59:25;-0.10;74.80
74364;DHT22;62797;49.740;10.154;2023-01-20T03:02:07;0.00;74.50
74364;DHT22;62797;49.740;10.154;2023-01-20T03:04:46;0.00;73.30
74364;DHT22;62797;49.740;10.154;2023-01-20T03:07:14;0.00;74.00
74364;DHT22;62797;49.740;10.154;2023-01-20T03:09:45;0.00;73.80
74364;DHT22;62797;49.740;10.154;2023-01-20T03:12:24;0.10;73.20
74364;DHT22;62797;49.740;10.154;2023-01-20T03:14:51;0.20;72.90
74364;DHT22;62797;49.740;10.154;2023-01-20T03:17:18;0.20;72.90
74364;DHT22;62797;49.740;10.154;2023-01-20T03:19:43;0.30;72.80
74364;DHT22;62797;49.740;10.154;2023-01-20T03:22:09;0.20;72.50
74364;DHT22;62797;49.740;10.154;2023-01-20T03:24:36;0.20;71.90
74364;DHT22;62797;49.740;10.154;2023-01-20T03:27:03;0.20;72.40
74364;DHT22;62797;49.740;10.154;2023-01-20T03:29:29;0.30;72.90
74364;DHT22;62797;49.740;10.154;2023-01-20T03:31:57;0.30;72.40
74364;DHT22;62797;49.740;10.154;2023-01-20T03:34:25;0.40;72.10
74364;DHT22;62797;49.740;10.154;2023-01-20T03:36:52;0.40;72.00
74364;DHT22;62797;49.740;10.154;2023-01-20T03:39:18;0.40;71.30
74364;DHT22;62797;49.740;10.154;2023-01-20T03:42:03;0.40;71.80
74364;DHT22;62797;49.740;10.154;2023-01-20T03:48:03;0.40;71.50
74364;DHT22;62797;49.740;10.154;2023-01-20T03:50:30;0.40;71.80
74364;DHT22;62797;49.740;10.154;2023-01-20T03:53:17;0.40;71.70
74364;DHT22;62797;49.740;10.154;2023-01-20T03:58:32;0.40;71.50
74364;DHT22;62797;49.740;10.154;2023-01-20T04:00:59;0.40;70.70
74364;DHT22;62797;49.740;10.154;2023-01-20T04:03:30;0.20;71.50
74364;DHT22;62797;49.740;10.154;2023-01-20T04:05:59;0.00;73.90
74364;DHT22;62797;49.740;10.154;2023-01-20T04:08:28;0.00;74.20
74364;DHT22;62797;49.740;10.154;2023-01-20T04:10:56;0.00;73.90
74364;DHT22;62797;49.740;10.154;2023-01-20T04:13:24;0.00;74.40
74364;DHT22;62797;49.740;10.154;2023-01-20T04:15:49;0.00;74.50
74364;DHT22;62797;49.740;10.154;2023-01-20T04:18:18;-0.10;74.70
74364;DHT22;62797;49.740;10.154;2023-01-20T04:20:54;-0.10;74.90
74364;DHT22;62797;49.740;10.154;2023-01-20T04:23:28;0.00;75.10
74364;DHT22;62797;49.740;10.154;2023-01-20T04:25:55;0.00;75.30
74364;DHT22;62797;49.740;10.154;2023-01-20T04:28:21;0.00;75.30
74364;DHT22;62797;49.740;10.154;2023-01-20T04:30:47;0.00;74.80
74364;DHT22;62797;49.740;10.154;2023-01-20T04:33:13;-0.10;75.00
74364;DHT22;62797;49.740;10.154;2023-01-20T04:35:38;-0.10;75.20
74364;DHT22;62797;49.740;10.154;2023-01-20T04:38:04;-0.10;75.50
74364;DHT22;62797;49.740;10.154;2023-01-20T04:40:29;-0.10;76.10
74364;DHT22;62797;49.740;10.154;2023-01-20T04:42:55;-0.10;75.80
74364;DHT22;62797;49.740;10.154;2023-01-20T04:45:21;-0.10;76.30
74364;DHT22;62797;49.740;10.154;2023-01-20T04:47:46;-0.10;75.90
74364;DHT22;62797;49.740;10.154;2023-01-20T04:50:13;-0.10;76.30
74364;DHT22;62797;49.740;10.154;2023-01-20T04:52:39;-0.20;76.40
74364;DHT22;62797;49.740;10.154;2023-01-20T04:55:05;-0.20;77.00
74364;DHT22;62797;49.740;10.154;2023-01-20T04:57:31;-0.20;77.10
74364;DHT22;62797;49.740;10.154;2023-01-20T04:59:57;-0.20;77.70
74364;DHT22;62797;49.740;10.154;2023-01-20T05:02:22;-0.30;77.30
74364;DHT22;62797;49.740;10.154;2023-01-20T05:04:48;-0.20;77.90
74364;DHT22;62797;49.740;10.154;2023-01-20T05:07:13;-0.20;77.30
74364;DHT22;62797;49.740;10.154;2023-01-20T05:09:39;-0.20;77.00
74364;DHT22;62797;49.740;10.154;2023-01-20T05:12:19;-0.20;77.40
74364;DHT22;62797;49.740;10.154;2023-01-20T05:14:45;-0.10;77.30
74364;DHT22;62797;49.740;10.154;2023-01-20T05:17:10;-0.10;77.50
74364;DHT22;62797;49.740;10.154;2023-01-20T05:19:36;-0.10;77.00
74364;DHT22;62797;49.740;10.154;2023-01-20T05:22:02;-0.10;77.10
74364;DHT22;62797;49.740;10.154;2023-01-20T05:24:27;0.00;77.80
74364;DHT22;62797;49.740;10.154;2023-01-20T05:26:55;0.10;77.20
74364;DHT22;62797;49.740;10.154;2023-01-20T05:29:21;0.10;76.40
74364;DHT22;62797;49.740;10.154;2023-01-20T05:31:46;0.10;76.20
74364;DHT22;62797;49.740;10.154;2023-01-20T05:34:12;0.10;76.20
74364;DHT22;62797;49.740;10.154;2023-01-20T05:36:37;0.10;76.10
74364;DHT22;62797;49.740;10.154;2023-01-20T05:39:03;0.20;76.20
74364;DHT22;62797;49.740;10.154;2023-01-20T05:41:28;0.20;76.40
74364;DHT22;62797;49.740;10.154;2023-01-20T05:43:54;0.30;76.20
74364;DHT22;62797;49.740;10.154;2023-01-20T05:46:20;0.30;76.00
74364;DHT22;62797;49.740;10.154;2023-01-20T05:48:46;0.30;75.60
74364;DHT22;62797;49.740;10.154;2023-01-20T05:51:11;0.30;74.80
74364;DHT22;62797;49.740;10.154;2023-01-20T05:53:37;0.30;75.90
74364;DHT22;62797;49.740;10.154;2023-01-20T05:56:04;0.30;75.70
74364;DHT22;62797;49.740;10.154;2023-01-20T05:58:30;0.20;75.00
74364;DHT22;62797;49.740;10.154;2023-01-20T06:01:07;0.20;76.20
74364;DHT22;62797;49.740;10.154;2023-01-20T06:03:33;0.30;76.40
74364;DHT22;62797;49.740;10.154;2023-01-20T06:06:00;0.30;76.10
74364;DHT22;62797;49.740;10.154;2023-01-20T06:08:25;0.40;76.00
74364;DHT22;62797;49.740;10.154;2023-01-20T06:10:52;0.50;75.50
74364;DHT22;62797;49.740;10.154;2023-01-20T06:13:17;0.50;75.30
74364;DHT22;62797;49.740;10.154;2023-01-20T06:15:43;0.50;74.80
74364;DHT22;62797;49.740;10.154;2023-01-20T06:18:08;0.50;75.10
74364;DHT22;62797;49.740;10.154;2023-01-20T06:20:37;0.60;74.60
74364;DHT22;62797;49.740;10.154;2023-01-20T06:23:03;0.60;74.20
74364;DHT22;62797;49.740;10.154;2023-01-20T06:25:28;0.60;74.30
74364;DHT22;62797;49.740;10.154;2023-01-20T06:27:54;0.60;74.10
74364;DHT22;62797;49.740;10.154;2023-01-20T06:30:20;0.50;74.30
74364;DHT22;62797;49.740;10.154;2023-01-20T06:32:46;0.60;74.10
74364;DHT22;62797;49.740;10.154;2023-01-20T06:35:12;0.40;74.00
74364;DHT22;62797;49.740;10.154;2023-01-20T06:37:38;0.40;74.70
74364;DHT22;62797;49.740;10.154;2023-01-20T06:40:04;0.50;74.90
74364;DHT22;62797;49.740;10.154;2023-01-20T06:42:30;0.50;74.70
74364;DHT22;62797;49.740;10.154;2023-01-20T06:44:56;0.40;75.00
74364;DHT22;62797;49.740;10.154;2023-01-20T06:47:22;0.50;75.30
74364;DHT22;62797;49.740;10.154;2023-01-20T06:49:47;0.50;75.40
74364;DHT22;62797;49.740;10.154;2023-01-20T06:52:13;0.40;75.10
74364;DHT22;62797;49.740;10.154;2023-01-20T06:54:38;0.50;75.20
74364;DHT22;62797;49.740;10.154;2023-01-20T06:57:04;0.50;75.40
74364;DHT22;62797;49.740;10.154;2023-01-20T06:59:30;0.40;75.30
74364;DHT22;62797;49.740;10.154;2023-01-20T07:01:55;0.50;75.20
74364;DHT22;62797;49.740;10.154;2023-01-20T07:04:21;0.50;74.60
74364;DHT22;62797;49.740;10.154;2023-01-20T07:06:46;0.50;74.80
74364;DHT22;62797;49.740;10.154;2023-01-20T07:09:12;0.40;74.70
74364;DHT22;62797;49.740;10.154;2023-01-20T07:11:38;0.40;74.80
74364;DHT22;62797;49.740;10.154;2023-01-20T07:14:04;0.40;74.50
74364;DHT22;62797;49.740;10.154;2023-01-20T07:16:30;0.40;74.40
74364;DHT22;62797;49.740;10.154;2023-01-20T07:18:56;0.40;74.30
74364;DHT22;62797;49.740;10.154;2023-01-20T07:21:22;0.40;74.60
74364;DHT22;62797;49.740;10.154;2023-01-20T07:23:48;0.40;74.60
74364;DHT22;62797;49.740;10.154;2023-01-20T07:26:19;0.40;75.10
74364;DHT22;62797;49.740;10.154;2023-01-20T07:28:46;0.40;74.60
74364;DHT22;62797;49.740;10.154;2023-01-20T07:31:17;0.40;74.60
74364;DHT22;62797;49.740;10.154;2023-01-20T07:33:43;0.40;74.00
74364;DHT22;62797;49.740;10.154;2023-01-20T07:36:10;0.40;74.90
74364;DHT22;62797;49.740;10.154;2023-01-20T07:38:37;0.40;74.20
74364;DHT22;62797;49.740;10.154;2023-01-20T07:41:05;0.30;74.50
74364;DHT22;62797;49.740;10.154;2023-01-20T07:43:31;0.40;74.80
74364;DHT22;62797;49.740;10.154;2023-01-20T07:45:58;0.30;74.70
74364;DHT22;62797;49.740;10.154;2023-01-20T07:48:24;0.30;74.60
74364;DHT22;62797;49.740;10.154;2023-01-20T07:50:56;0.20;74.80
74364;DHT22;62797;49.740;10.154;2023-01-20T07:53:31;0.20;74.90
74364;DHT22;62797;49.740;10.154;2023-01-20T07:56:05;0.30;75.70
74364;DHT22;62797;49.740;10.154;2023-01-20T07:58:31;0.40;75.00
74364;DHT22;62797;49.740;10.154;2023-01-20T08:00:56;0.40;74.90
74364;DHT22;62797;49.740;10.154;2023-01-20T08:03:22;0.30;75.00
74364;DHT22;62797;49.740;10.154;2023-01-20T08:05:48;0.30;74.40
74364;DHT22;62797;49.740;10.154;2023-01-20T08:08:14;0.30;74.90
74364;DHT22;62797;49.740;10.154;2023-01-20T08:10:39;0.40;75.20
74364;DHT22;62797;49.740;10.154;2023-01-20T08:13:05;0.50;74.50
74364;DHT22;62797;49.740;10.154;2023-01-20T08:15:30;0.50;74.50
74364;DHT22;62797;49.740;10.154;2023-01-20T08:17:56;0.60;74.60
74364;DHT22;62797;49.740;10.154;2023-01-20T08:20:23;0.70;74.90
74364;DHT22;62797;49.740;10.154;2023-01-20T08:22:49;0.80;74.30
74364;DHT22;62797;49.740;10.154;2023-01-20T08:25:14;0.80;74.30
74364;DHT22;62797;49.740;10.154;2023-01-20T08:27:40;0.80;74.00
74364;DHT22;62797;49.740;10.154;2023-01-20T08:30:07;0.90;74.00
74364;DHT22;62797;49.740;10.154;2023-01-20T08:32:32;0.90;74.00
74364;DHT22;62797;49.740;10.154;2023-01-20T08:34:58;1.00;73.80
74364;DHT22;62797;49.740;10.154;2023-01-20T08:37:23;1.00;73.20
74364;DHT22;62797;49.740;10.154;2023-01-20T08:39:49;1.10;73.40
74364;DHT22;62797;49.740;10.154;2023-01-20T08:42:15;1.10;73.00
74364;DHT22;62797;49.740;10.154;2023-01-20T08:44:40;1.20;73.20
74364;DHT22;62797;49.740;10.154;2023-01-20T08:47:06;1.20;72.40
74364;DHT22;62797;49.740;10.154;2023-01-20T08:49:32;1.20;71.90
74364;DHT22;62797;49.740;10.154;2023-01-20T08:51:57;1.30;72.60
74364;DHT22;62797;49.740;10.154;2023-01-20T08:54:23;1.30;71.00
74364;DHT22;62797;49.740;10.154;2023-01-20T08:56:52;1.30;70.50
74364;DHT22;62797;49.740;10.154;2023-01-20T08:59:19;1.30;70.00
74364;DHT22;62797;49.740;10.154;2023-01-20T09:01:45;1.10;69.00
74364;DHT22;62797;49.740;10.154;2023-01-20T09:04:11;1.10;70.60
74364;DHT22;62797;49.740;10.154;2023-01-20T09:06:47;1.10;71.70
74364;DHT22;62797;49.740;10.154;2023-01-20T09:09:15;1.20;70.30
74364;DHT22;62797;49.740;10.154;2023-01-20T09:11:42;1.20;70.60
74364;DHT22;62797;49.740;10.154;2023-01-20T09:14:15;1.20;69.70
74364;DHT22;62797;49.740;10.154;2023-01-20T09:16:41;1.30;70.60
74364;DHT22;62797;49.740;10.154;2023-01-20T09:19:06;1.30;69.40
74364;DHT22;62797;49.740;10.154;2023-01-20T09:21:32;1.40;70.60
74364;DHT22;62797;49.740;10.154;2023-01-20T09:23:58;1.50;70.70
74364;DHT22;62797;49.740;10.154;2023-01-20T09:26:24;1.50;69.20
74364;DHT22;62797;49.740;10.154;2023-01-20T09:28:49;1.60;70.10
74364;DHT22;62797;49.740;10.154;2023-01-20T09:31:15;1.70;70.50
74364;DHT22;62797;49.740;10.154;2023-01-20T09:33:41;1.70;69.20
74364;DHT22;62797;49.740;10.154;2023-01-20T09:36:09;1.60;68.40
74364;DHT22;62797;49.740;10.154;2023-01-20T09:38:35;1.60;68.10
74364;DHT22;62797;49.740;10.154;2023-01-20T09:41:28;1.30;64.70
74364;DHT22;62797;49.740;10.154;2023-01-20T09:44:37;1.40;68.20
74364;DHT22;62797;49.740;10.154;2023-01-20T09:47:24;1.40;68.00
74364;DHT22;62797;49.740;10.154;2023-01-20T09:50:27;1.50;67.10
74364;DHT22;62797;49.740;10.154;2023-01-20T09:53:54;1.50;66.00
74364;DHT22;62797;49.740;10.154;2023-01-20T09:56:18;1.50;66.60
74364;DHT22;62797;49.740;10.154;2023-01-20T09:59:19;1.70;67.60
74364;DHT22;62797;49.740;10.154;2023-01-20T10:01:56;1.70;66.00
74364;DHT22;62797;49.740;10.154;2023-01-20T10:12:39;2.20;67.00
74364;DHT22;62797;49.740;10.154;2023-01-20T10:15:26;1.90;63.00
74364;DHT22;62797;49.740;10.154;2023-01-20T10:18:13;2.00;65.40
74364;DHT22;62797;49.740;10.154;2023-01-20T10:20:51;2.20;65.90
74364;DHT22;62797;49.740;10.154;2023-01-20T10:23:32;2.20;65.40
74364;DHT22;62797;49.740;10.154;2023-01-20T10:28:33;2.30;63.90
74364;DHT22;62797;49.740;10.154;2023-01-20T10:31:01;2.00;59.50
74364;DHT22;62797;49.740;10.154;2023-01-20T10:33:39;1.60;62.40
74364;DHT22;62797;49.740;10.154;2023-01-20T10:36:15;1.80;64.70
74364;DHT22;62797;49.740;10.154;2023-01-20T10:41:32;1.80;61.60
74364;DHT22;62797;49.740;10.154;2023-01-20T10:43:59;1.80;63.40
74364;DHT22;62797;49.740;10.154;2023-01-20T10:57:43;1.40;65.40
74364;DHT22;62797;49.740;10.154;2023-01-20T11:00:23;1.50;62.60
74364;DHT22;62797;49.740;10.154;2023-01-20T11:02:50;1.10;60.30
74364;DHT22;62797;49.740;10.154;2023-01-20T11:05:19;1.20;64.10
74364;DHT22;62797;49.740;10.154;2023-01-20T11:07:46;1.40;63.10
74364;DHT22;62797;49.740;10.154;2023-01-20T11:10:16;1.20;60.00
74364;DHT22;62797;49.740;10.154;2023-01-20T11:12:43;1.30;62.80
74364;DHT22;62797;49.740;10.154;2023-01-20T11:15:21;1.30;61.10
74364;DHT22;62797;49.740;10.154;2023-01-20T11:21:08;1.00;59.90
74364;DHT22;62797;49.740;10.154;2023-01-20T11:28:54;0.60;62.70
74364;DHT22;62797;49.740;10.154;2023-01-20T11:34:02;0.50;62.10
74364;DHT22;62797;49.740;10.154;2023-01-20T11:36:28;0.50;62.40
74364;DHT22;62797;49.740;10.154;2023-01-20T11:38:55;0.70;66.10
74364;DHT22;62797;49.740;10.154;2023-01-20T11:43:48;1.00;62.50
74364;DHT22;62797;49.740;10.154;2023-01-20T11:46:34;1.00;63.20
74364;DHT22;62797;49.740;10.154;2023-01-20T11:49:20;1.20;64.30
74364;DHT22;62797;49.740;10.154;2023-01-20T11:51:55;1.40;62.90
74364;DHT22;62797;49.740;10.154;2023-01-20T11:54:23;1.60;62.20
74364;DHT22;62797;49.740;10.154;2023-01-20T11:57:01;1.60;61.00
74364;DHT22;62797;49.740;10.154;2023-01-20T11:59:33;1.60;61.00
74364;DHT22;62797;49.740;10.154;2023-01-20T12:07:40;2.00;62.30
74364;DHT22;62797;49.740;10.154;2023-01-20T12:10:26;1.70;58.30
74364;DHT22;62797;49.740;10.154;2023-01-20T12:12:53;1.80;62.40
74364;DHT22;62797;49.740;10.154;2023-01-20T12:15:24;2.00;60.00
74364;DHT22;62797;49.740;10.154;2023-01-20T12:18:06;2.10;61.10
74364;DHT22;62797;49.740;10.154;2023-01-20T12:21:09;2.30;61.50
74364;DHT22;62797;49.740;10.154;2023-01-20T12:26:12;2.50;60.10
74364;DHT22;62797;49.740;10.154;2023-01-20T12:31:09;2.80;62.60
74364;DHT22;62797;49.740;10.154;2023-01-20T12:33:43;3.00;60.50
74364;DHT22;62797;49.740;10.154;2023-01-20T12:49:54;3.90;58.50
74364;DHT22;62797;49.740;10.154;2023-01-20T12:57:55;3.90;56.00
74364;DHT22;62797;49.740;10.154;2023-01-20T13:06:23;4.70;58.60
74364;DHT22;62797;49.740;10.154;2023-01-20T13:09:10;5.00;55.60
74364;DHT22;62797;49.740;10.154;2023-01-20T13:14:44;5.80;51.70
74364;DHT22;62797;49.740;10.154;2023-01-20T13:20:04;5.30;50.20
74364;DHT22;62797;49.740;10.154;2023-01-20T13:22:40;5.20;51.80
74364;DHT22;62797;49.740;10.154;2023-01-20T13:25:12;5.30;51.00
74364;DHT22;62797;49.740;10.154;2023-01-20T13:27:39;5.10;49.30
74364;DHT22;62797;49.740;10.154;2023-01-20T13:30:07;5.30;54.20
74364;DHT22;62797;49.740;10.154;2023-01-20T13:33:01;5.40;47.50
74364;DHT22;62797;49.740;10.154;2023-01-20T13:37:57;5.20;46.60
74364;DHT22;62797;49.740;10.154;2023-01-20T13:48:28;4.60;49.00
74364;DHT22;62797;49.740;10.154;2023-01-20T13:50:54;4.80;49.80
74364;DHT22;62797;49.740;10.154;2023-01-20T13:53:40;5.00;49.70
74364;DHT22;62797;49.740;10.154;2023-01-20T13:56:29;5.20;47.20
74364;DHT22;62797;49.740;10.154;2023-01-20T13:58:57;5.20;47.20
74364;DHT22;62797;49.740;10.154;2023-01-20T14:01:24;5.20;46.70
74364;DHT22;62797;49.740;10.154;2023-01-20T14:06:28;5.80;46.60
74364;DHT22;62797;49.740;10.154;2023-01-20T14:08:53;5.90;39.30
74364;DHT22;62797;49.740;10.154;2023-01-20T14:11:21;5.60;43.20
74364;DHT22;62797;49.740;10.154;2023-01-20T14:13:52;5.70;43.50
74364;DHT22;62797;49.740;10.154;2023-01-20T14:16:29;5.70;41.10
74364;DHT22;62797;49.740;10.154;2023-01-20T14:19:30;5.90;45.80
74364;DHT22;62797;49.740;10.154;2023-01-20T14:22:01;6.00;43.30
74364;DHT22;62797;49.740;10.154;2023-01-20T14:27:20;5.30;43.90
74364;DHT22;62797;49.740;10.154;2023-01-20T14:29:50;4.90;45.50
74364;DHT22;62797;49.740;10.154;2023-01-20T14:32:27;4.70;46.80
74364;DHT22;62797;49.740;10.154;2023-01-20T14:34:56;4.70;46.80
74364;DHT22;62797;49.740;10.154;2023-01-20T14:37:27;4.80;47.60
74364;DHT22;62797;49.740;10.154;2023-01-20T14:39:55;5.10;46.30
74364;DHT22;62797;49.740;10.154;2023-01-20T14:42:25;5.30;46.50
74364;DHT22;62797;49.740;10.154;2023-01-20T14:44:53;5.40;45.00
74364;DHT22;62797;49.740;10.154;2023-01-20T14:47:19;5.40;45.60
74364;DHT22;62797;49.740;10.154;2023-01-20T14:49:47;5.70;45.60
74364;DHT22;62797;49.740;10.154;2023-01-20T14:52:32;5.80;45.60
74364;DHT22;62797;49.740;10.154;2023-01-20T14:54:57;6.00;42.30
74364;DHT22;62797;49.740;10.154;2023-01-20T14:57:32;6.00;44.30
74364;DHT22;62797;49.740;10.154;2023-01-20T15:05:28;6.50;43.20
74364;DHT22;62797;49.740;10.154;2023-01-20T15:08:18;6.40;41.80
74364;DHT22;62797;49.740;10.154;2023-01-20T15:10:47;6.20;40.20
74364;DHT22;62797;49.740;10.154;2023-01-20T15:13:31;6.00;43.40
74364;DHT22;62797;49.740;10.154;2023-01-20T15:16:17;5.70;42.50
74364;DHT22;62797;49.740;10.154;2023-01-20T15:19:13;5.40;42.40
74364;DHT22;62797;49.740;10.154;2023-01-20T15:21:29;4.90;43.30
74364;DHT22;62797;49.740;10.154;2023-01-20T15:24:07;4.50;44.80
74364;DHT22;62797;49.740;10.154;2023-01-20T15:26:37;4.10;45.80
74364;DHT22;62797;49.740;10.154;2023-01-20T15:29:17;3.80;46.20
74364;DHT22;62797;49.740;10.154;2023-01-20T15:31:43;3.60;46.00
74364;DHT22;62797;49.740;10.154;2023-01-20T15:34:11;3.10;47.90
74364;DHT22;62797;49.740;10.154;2023-01-20T15:36:36;2.90;49.50
74364;DHT22;62797;49.740;10.154;2023-01-20T15:39:09;2.70;51.20
74364;DHT22;62797;49.740;10.154;2023-01-20T15:41:35;2.60;51.40
74364;DHT22;62797;49.740;10.154;2023-01-20T15:44:00;2.50;53.70
74364;DHT22;62797;49.740;10.154;2023-01-20T15:46:26;2.40;53.10
74364;DHT22;62797;49.740;10.154;2023-01-20T15:48:51;2.20;53.30
74364;DHT22;62797;49.740;10.154;2023-01-20T15:51:18;2.00;53.40
74364;DHT22;62797;49.740;10.154;2023-01-20T15:53:45;1.90;54.50
74364;DHT22;62797;49.740;10.154;2023-01-20T15:58:45;1.60;56.20
74364;DHT22;62797;49.740;10.154;2023-01-20T16:01:16;1.50;57.00
74364;DHT22;62797;49.740;10.154;2023-01-20T16:03:42;1.50;57.10
74364;DHT22;62797;49.740;10.154;2023-01-20T16:06:16;1.30;58.60
74364;DHT22;62797;49.740;10.154;2023-01-20T16:08:44;1.10;59.90
74364;DHT22;62797;49.740;10.154;2023-01-20T16:11:11;1.00;59.10
74364;DHT22;62797;49.740;10.154;2023-01-20T16:13:36;0.50;59.80
74364;DHT22;62797;49.740;10.154;2023-01-20T16:16:02;0.40;62.70
74364;DHT22;62797;49.740;10.154;2023-01-20T16:18:28;0.30;62.60
74364;DHT22;62797;49.740;10.154;2023-01-20T16:20:54;0.20;63.00
74364;DHT22;62797;49.740;10.154;2023-01-20T16:23:20;0.20;63.20
74364;DHT22;62797;49.740;10.154;2023-01-20T16:25:47;0.20;63.90
74364;DHT22;62797;49.740;10.154;2023-01-20T16:28:18;0.00;66.80
74364;DHT22;62797;49.740;10.154;2023-01-20T16:30:46;-0.10;67.30
74364;DHT22;62797;49.740;10.154;2023-01-20T16:33:18;-0.10;65.80
74364;DHT22;62797;49.740;10.154;2023-01-20T16:35:43;-0.20;65.20
74364;DHT22;62797;49.740;10.154;2023-01-20T16:38:17;-0.30;63.90
74364;DHT22;62797;49.740;10.154;2023-01-20T16:41:03;-0.50;66.40
74364;DHT22;62797;49.740;10.154;2023-01-20T16:43:29;-0.60;66.30
74364;DHT22;62797;49.740;10.154;2023-01-20T16:45:55;-0.60;66.80
74364;DHT22;62797;49.740;10.154;2023-01-20T16:48:22;-0.60;65.80
74364;DHT22;62797;49.740;10.154;2023-01-20T16:50:48;-0.70;65.50
74364;DHT22;62797;49.740;10.154;2023-01-20T16:53:14;-0.70;65.80
74364;DHT22;62797;49.740;10.154;2023-01-20T16:55:45;-0.90;66.20
74364;DHT22;62797;49.740;10.154;2023-01-20T16:58:15;-0.90;67.90
74364;DHT22;62797;49.740;10.154;2023-01-20T17:00:41;-0.90;68.30
74364;DHT22;62797;49.740;10.154;2023-01-20T17:03:06;-0.90;69.80
74364;DHT22;62797;49.740;10.154;2023-01-20T17:05:33;-1.00;69.60
74364;DHT22;62797;49.740;10.154;2023-01-20T17:07:58;-1.00;70.10
74364;DHT22;62797;49.740;10.154;2023-01-20T17:10:26;-1.10;70.50
74364;DHT22;62797;49.740;10.154;2023-01-20T17:12:54;-1.00;70.00
74364;DHT22;62797;49.740;10.154;2023-01-20T17:15:20;-1.10;71.90
74364;DHT22;62797;49.740;10.154;2023-01-20T17:17:51;-1.10;72.10
74364;DHT22;62797;49.740;10.154;2023-01-20T17:20:19;-1.10;70.50
74364;DHT22;62797;49.740;10.154;2023-01-20T17:22:44;-1.10;71.10
74364;DHT22;62797;49.740;10.154;2023-01-20T17:25:12;-1.10;71.50
74364;DHT22;62797;49.740;10.154;2023-01-20T17:27:38;-1.20;70.80
74364;DHT22;62797;49.740;10.154;2023-01-20T17:30:05;-1.30;70.10
74364;DHT22;62797;49.740;10.154;2023-01-20T17:32:34;-1.30;71.60
74364;DHT22;62797;49.740;10.154;2023-01-20T17:35:00;-1.30;71.00
74364;DHT22;62797;49.740;10.154;2023-01-20T17:37:25;-1.30;71.20
74364;DHT22;62797;49.740;10.154;2023-01-20T17:39:51;-1.40;71.00
74364;DHT22;62797;49.740;10.154;2023-01-20T17:42:16;-1.50;71.00
74364;DHT22;62797;49.740;10.154;2023-01-20T17:44:42;-1.50;69.70